sensor_id;sensor_type;location;lat;lon;timestamp;pressure;altitude;pressure_sealevel;temperature;humidity
71194;BME280;58903;47.210;8.618;2023-04-09T00:01:10;94647.16;;;26.76;40.67
71194;BME280;58903;47.210;8.618;2023-04-09T00:04:02;94639.63;;;26.76;40.04
71194;BME280;58903;47.210;8.618;2023-04-09T00:06:42;94644.41;;;26.76;39.88
71194;BME280;58903;47.210;8.618;2023-04-09T00:09:28;94641.63;;;26.76;40.43
71194;BME280;58903;47.210;8.618;2023-04-09T00:12:05;94639.41;;;26.74;40.04
71194;BME280;58903;47.210;8.618;2023-04-09T00:14:42;94636.38;;;26.72;40.14
71194;BME280;58903;47.210;8.618;2023-04-09T00:17:48;94642.91;;;26.75;39.95
71194;BME280;58903;47.210;8.618;2023-04-09T00:20:26;94633.13;;;26.74;40.51
71194;BME280;58903;47.210;8.618;2023-04-09T00:23:30;94630.84;;;26.72;40.64
71194;BME280;58903;47.210;8.618;2023-04-09T00:26:05;94622.34;;;26.70;40.26
71194;BME280;58903;47.210;8.618;2023-04-09T00:28:42;94624.34;;;26.70;39.96
71194;BME280;58903;47.210;8.618;2023-04-09T00:31:47;94627.34;;;26.72;40.21
71194;BME280;58903;47.210;8.618;2023-04-09T00:34:13;94622.84;;;26.69;40.69
71194;BME280;58903;47.210;8.618;2023-04-09T00:36:55;94616.59;;;26.68;40.46
71194;BME280;58903;47.210;8.618;2023-04-09T00:39:22;94617.84;;;26.67;40.59
71194;BME280;58903;47.210;8.618;2023-04-09T00:41:48;94619.84;;;26.67;40.16
71194;BME280;58903;47.210;8.618;2023-04-09T00:44:15;94623.88;;;26.66;40.35
71194;BME280;58903;47.210;8.618;2023-04-09T00:46:44;94616.63;;;26.63;40.12
71194;BME280;58903;47.210;8.618;2023-04-09T00:49:12;94626.16;;;26.62;40.51
71194;BME280;58903;47.210;8.618;2023-04-09T00:51:44;94619.38;;;26.63;40.06
71194;BME280;58903;47.210;8.618;2023-04-09T00:54:12;94625.41;;;26.61;40.46
71194;BME280;58903;47.210;8.618;2023-04-09T00:56:41;94628.41;;;26.63;40.47
71194;BME280;58903;47.210;8.618;2023-04-09T00:59:07;94629.88;;;26.64;40.41
71194;BME280;58903;47.210;8.618;2023-04-09T01:01:33;94619.91;;;26.61;40.22
71194;BME280;58903;47.210;8.618;2023-04-09T01:03:59;94618.34;;;26.66;40.12
71194;BME280;58903;47.210;8.618;2023-04-09T01:06:52;94622.38;;;26.65;40.84
71194;BME280;58903;47.210;8.618;2023-04-09T01:10:10;94615.59;;;26.66;40.46
71194;BME280;58903;47.210;8.618;2023-04-09T01:12:31;94620.88;;;26.64;40.45
71194;BME280;58903;47.210;8.618;2023-04-09T01:15:25;94626.91;;;26.62;40.35
71194;BME280;58903;47.210;8.618;2023-04-09T01:21:12;94631.16;;;26.63;40.13
71194;BME280;58903;47.210;8.618;2023-04-09T01:29:45;94617.88;;;26.62;40.56
71194;BME280;58903;47.210;8.618;2023-04-09T01:32:17;94617.88;;;26.62;40.52
71194;BME280;58903;47.210;8.618;2023-04-09T01:34:48;94609.63;;;26.62;40.12
71194;BME280;58903;47.210;8.618;2023-04-09T01:37:17;94611.09;;;26.63;40.00
71194;BME280;58903;47.210;8.618;2023-04-09T01:39:45;94606.84;;;26.62;40.90
71194;BME280;58903;47.210;8.618;2023-04-09T01:42:14;94605.34;;;26.61;40.04
71194;BME280;58903;47.210;8.618;2023-04-09T01:44:45;94600.84;;;26.58;40.48
71194;BME280;58903;47.210;8.618;2023-04-09T01:47:12;94603.59;;;26.58;40.87
71194;BME280;58903;47.210;8.618;2023-04-09T01:49:39;94600.84;;;26.58;40.43
71194;BME280;58903;47.210;8.618;2023-04-09T01:52:18;94610.38;;;26.57;40.86
71194;BME280;58903;47.210;8.618;2023-04-09T01:54:44;94605.41;;;26.55;40.58
71194;BME280;58903;47.210;8.618;2023-04-09T01:57:40;94603.38;;;26.56;40.03
71194;BME280;58903;47.210;8.618;2023-04-09T02:00:15;94603.59;;;26.58;40.01
71194;BME280;58903;47.210;8.618;2023-04-09T02:03:22;94611.16;;;26.57;40.67
71194;BME280;58903;47.210;8.618;2023-04-09T02:06:12;94610.16;;;26.55;40.23
71194;BME280;58903;47.210;8.618;2023-04-09T02:08:52;94612.91;;;26.55;40.59
71194;BME280;58903;47.210;8.618;2023-04-09T02:11:22;94603.88;;;26.54;40.32
71194;BME280;58903;47.210;8.618;2023-04-09T02:13:58;94611.16;;;26.57;40.33
71194;BME280;58903;47.210;8.618;2023-04-09T02:16:25;94608.16;;;26.55;40.40
71194;BME280;58903;47.210;8.618;2023-04-09T02:19:03;94605.88;;;26.54;40.60
71194;BME280;58903;47.210;8.618;2023-04-09T02:21:34;94610.91;;;26.55;40.68
71194;BME280;58903;47.210;8.618;2023-04-09T02:24:09;94617.69;;;26.54;40.66
71194;BME280;58903;47.210;8.618;2023-04-09T02:26:41;94619.69;;;26.54;40.59
71194;BME280;58903;47.210;8.618;2023-04-09T02:29:18;94613.94;;;26.52;41.18
71194;BME280;58903;47.210;8.618;2023-04-09T02:31:44;94611.41;;;26.54;40.20
71194;BME280;58903;47.210;8.618;2023-04-09T02:34:10;94610.91;;;26.55;40.75
71194;BME280;58903;47.210;8.618;2023-04-09T02:36:36;94608.88;;;26.56;40.89
71194;BME280;58903;47.210;8.618;2023-04-09T02:39:02;94612.41;;;26.56;40.66
71194;BME280;58903;47.210;8.618;2023-04-09T02:41:40;94617.16;;;26.56;40.47
71194;BME280;58903;47.210;8.618;2023-04-09T02:47:40;94609.91;;;26.53;40.79
71194;BME280;58903;47.210;8.618;2023-04-09T02:50:11;94610.91;;;26.55;40.39
71194;BME280;58903;47.210;8.618;2023-04-09T02:52:45;94603.38;;;26.56;39.89
71194;BME280;58903;47.210;8.618;2023-04-09T02:55:11;94614.69;;;26.52;40.41
71194;BME280;58903;47.210;8.618;2023-04-09T02:57:48;94611.97;;;26.47;40.28
71194;BME280;58903;47.210;8.618;2023-04-09T03:00:55;94614.44;;;26.50;40.46
71194;BME280;58903;47.210;8.618;2023-04-09T03:03:36;94609.16;;;26.52;40.41
71194;BME280;58903;47.210;8.618;2023-04-09T03:06:28;94602.41;;;26.53;40.37
71194;BME280;58903;47.210;8.618;2023-04-09T03:15:31;94594.84;;;26.54;40.50
71194;BME280;58903;47.210;8.618;2023-04-09T03:18:22;94594.63;;;26.52;40.83
71194;BME280;58903;47.210;8.618;2023-04-09T03:21:20;94598.88;;;26.53;40.80
71194;BME280;58903;47.210;8.618;2023-04-09T03:31:06;94597.19;;;26.44;40.61
71194;BME280;58903;47.210;8.618;2023-04-09T03:33:50;94601.94;;;26.44;40.93
71194;BME280;58903;47.210;8.618;2023-04-09T03:36:27;94608.22;;;26.44;40.55
71194;BME280;58903;47.210;8.618;2023-04-09T03:39:09;94599.19;;;26.44;40.84
71194;BME280;58903;47.210;8.618;2023-04-09T03:41:56;94595.91;;;26.45;40.72
71194;BME280;58903;47.210;8.618;2023-04-09T03:44:39;94604.19;;;26.45;40.86
71194;BME280;58903;47.210;8.618;2023-04-09T03:47:06;94604.72;;;26.44;40.52
71194;BME280;58903;47.210;8.618;2023-04-09T03:49:37;94604.47;;;26.42;40.97
71194;BME280;58903;47.210;8.618;2023-04-09T03:55:17;94603.94;;;26.43;40.71
71194;BME280;58903;47.210;8.618;2023-04-09T03:57:43;94602.22;;;26.40;40.36
71194;BME280;58903;47.210;8.618;2023-04-09T04:00:18;94597.22;;;26.39;40.65
71194;BME280;58903;47.210;8.618;2023-04-09T04:02:44;94597.44;;;26.41;40.45
71194;BME280;58903;47.210;8.618;2023-04-09T04:05:45;94587.63;;;26.45;40.15
71194;BME280;58903;47.210;8.618;2023-04-09T04:08:28;94595.41;;;26.47;40.81
71194;BME280;58903;47.210;8.618;2023-04-09T04:10:55;94598.91;;;26.47;40.81
71194;BME280;58903;47.210;8.618;2023-04-09T04:13:38;94600.66;;;26.50;40.75
71194;BME280;58903;47.210;8.618;2023-04-09T04:16:09;94600.13;;;26.52;40.54
71194;BME280;58903;47.210;8.618;2023-04-09T04:18:47;94600.13;;;26.52;39.82
71194;BME280;58903;47.210;8.618;2023-04-09T04:21:15;94597.13;;;26.50;39.87
71194;BME280;58903;47.210;8.618;2023-04-09T04:23:41;94599.91;;;26.50;39.82
71194;BME280;58903;47.210;8.618;2023-04-09T04:26:09;94597.66;;;26.48;39.96
71194;BME280;58903;47.210;8.618;2023-04-09T04:28:39;94602.13;;;26.51;40.39
71194;BME280;58903;47.210;8.618;2023-04-09T04:31:11;94591.84;;;26.52;40.25
71194;BME280;58903;47.210;8.618;2023-04-09T04:33:39;94597.38;;;26.52;39.67
71194;BME280;58903;47.210;8.618;2023-04-09T04:36:13;94610.94;;;26.50;39.29
71194;BME280;58903;47.210;8.618;2023-04-09T04:38:40;94600.44;;;26.43;39.37
71194;BME280;58903;47.210;8.618;2023-04-09T04:41:06;94604.00;;;26.38;40.15
71194;BME280;58903;47.210;8.618;2023-04-09T04:43:32;94600.19;;;26.41;39.53
71194;BME280;58903;47.210;8.618;2023-04-09T04:46:00;94607.25;;;26.36;39.64
71194;BME280;58903;47.210;8.618;2023-04-09T04:48:53;94608.47;;;26.41;39.70
71194;BME280;58903;47.210;8.618;2023-04-09T04:51:19;94608.72;;;26.43;39.31
71194;BME280;58903;47.210;8.618;2023-04-09T04:53:46;94601.72;;;26.42;39.57
71194;BME280;58903;47.210;8.618;2023-04-09T04:56:25;94613.75;;;26.39;39.59
71194;BME280;58903;47.210;8.618;2023-04-09T04:59:10;94612.03;;;26.36;39.75
71194;BME280;58903;47.210;8.618;2023-04-09T05:02:05;94607.78;;;26.35;40.25
71194;BME280;58903;47.210;8.618;2023-04-09T05:04:56;94612.03;;;26.36;40.12
71194;BME280;58903;47.210;8.618;2023-04-09T05:07:33;94607.25;;;26.36;40.00
71194;BME280;58903;47.210;8.618;2023-04-09T05:10:14;94616.03;;;26.40;40.32
71194;BME280;58903;47.210;8.618;2023-04-09T05:12:51;94604.72;;;26.38;40.11
71194;BME280;58903;47.210;8.618;2023-04-09T05:15:48;94612.75;;;26.42;39.79
71194;BME280;58903;47.210;8.618;2023-04-09T05:18:17;94614.75;;;26.41;40.08
71194;BME280;58903;47.210;8.618;2023-04-09T05:20:45;94613.75;;;26.39;39.90
71194;BME280;58903;47.210;8.618;2023-04-09T05:23:45;94616.03;;;26.40;39.80
71194;BME280;58903;47.210;8.618;2023-04-09T05:26:12;94616.78;;;26.35;40.81
71194;BME280;58903;47.210;8.618;2023-04-09T05:28:39;94615.75;;;26.38;40.11
71194;BME280;58903;47.210;8.618;2023-04-09T05:31:18;94618.25;;;26.42;40.21
71194;BME280;58903;47.210;8.618;2023-04-09T05:33:44;94619.50;;;26.41;40.29
71194;BME280;58903;47.210;8.618;2023-04-09T05:36:25;94615.28;;;26.34;39.93
71194;BME280;58903;47.210;8.618;2023-04-09T05:39:01;94613.81;;;26.33;40.21
71194;BME280;58903;47.210;8.618;2023-04-09T05:41:28;94622.84;;;26.34;40.25
71194;BME280;58903;47.210;8.618;2023-04-09T05:43:55;94616.03;;;26.35;43.53
71194;BME280;58903;47.210;8.618;2023-04-09T05:49:50;94612.56;;;26.29;40.93
71194;BME280;58903;47.210;8.618;2023-04-09T05:52:36;94611.59;;;26.26;40.69
71194;BME280;58903;47.210;8.618;2023-04-09T05:55:32;94614.09;;;26.24;40.82
71194;BME280;58903;47.210;8.618;2023-04-09T05:58:16;94621.13;;;26.25;40.85
71194;BME280;58903;47.210;8.618;2023-04-09T06:00:44;94618.31;;;26.31;40.56
71194;BME280;58903;47.210;8.618;2023-04-09T06:03:31;94617.28;;;26.39;40.19
71194;BME280;58903;47.210;8.618;2023-04-09T06:05:58;94619.56;;;26.30;38.79
71194;BME280;58903;47.210;8.618;2023-04-09T06:08:30;94623.13;;;26.25;39.44
71194;BME280;58903;47.210;8.618;2023-04-09T06:10:57;94620.38;;;26.19;39.69
71194;BME280;58903;47.210;8.618;2023-04-09T06:13:26;94618.91;;;26.18;39.42
71194;BME280;58903;47.210;8.618;2023-04-09T06:16:12;94622.16;;;26.16;39.86
71194;BME280;58903;47.210;8.618;2023-04-09T06:18:47;94628.16;;;26.21;40.06
71194;BME280;58903;47.210;8.618;2023-04-09T06:21:25;94623.13;;;26.19;39.76
71194;BME280;58903;47.210;8.618;2023-04-09T06:23:53;94629.41;;;26.20;40.53
71194;BME280;58903;47.210;8.618;2023-04-09T06:26:50;94631.88;;;26.23;40.17
71194;BME280;58903;47.210;8.618;2023-04-09T06:29:17;94628.16;;;26.21;41.13
71194;BME280;58903;47.210;8.618;2023-04-09T06:31:43;94627.66;;;26.22;40.75
71194;BME280;58903;47.210;8.618;2023-04-09T06:34:41;94626.66;;;26.20;41.22
71194;BME280;58903;47.210;8.618;2023-04-09T06:37:07;94628.16;;;26.21;40.55
71194;BME280;58903;47.210;8.618;2023-04-09T06:39:33;94627.88;;;26.24;41.03
71194;BME280;58903;47.210;8.618;2023-04-09T06:42:08;94632.13;;;26.31;40.48
71194;BME280;58903;47.210;8.618;2023-04-09T06:44:35;94630.06;;;26.37;40.36
71194;BME280;58903;47.210;8.618;2023-04-09T06:47:03;94628.31;;;26.39;40.10
71194;BME280;58903;47.210;8.618;2023-04-09T06:49:28;94622.03;;;26.39;40.54
71194;BME280;58903;47.210;8.618;2023-04-09T06:52:08;94623.53;;;26.40;39.77
71194;BME280;58903;47.210;8.618;2023-04-09T06:54:49;94622.03;;;26.39;40.65
71194;BME280;58903;47.210;8.618;2023-04-09T06:57:43;94630.06;;;26.37;40.85
71194;BME280;58903;47.210;8.618;2023-04-09T07:00:29;94622.56;;;26.37;40.78
71194;BME280;58903;47.210;8.618;2023-04-09T07:02:55;94621.31;;;26.33;40.64
71194;BME280;58903;47.210;8.618;2023-04-09T07:05:33;94621.09;;;26.31;40.51
71194;BME280;58903;47.210;8.618;2023-04-09T07:08:31;94621.09;;;26.31;41.44
71194;BME280;58903;47.210;8.618;2023-04-09T07:11:06;94626.34;;;26.29;41.04
71194;BME280;58903;47.210;8.618;2023-04-09T07:16:51;94620.38;;;26.25;41.75
71194;BME280;58903;47.210;8.618;2023-04-09T07:19:21;94619.84;;;26.26;41.46
71194;BME280;58903;47.210;8.618;2023-04-09T07:21:54;94619.56;;;26.30;41.04
71194;BME280;58903;47.210;8.618;2023-04-09T07:24:26;94618.31;;;26.31;41.26
71194;BME280;58903;47.210;8.618;2023-04-09T07:27:17;94618.28;;;26.36;41.23
71194;BME280;58903;47.210;8.618;2023-04-09T07:29:43;94626.53;;;26.42;41.14
71194;BME280;58903;47.210;8.618;2023-04-09T07:32:09;94610.50;;;26.40;41.14
71194;BME280;58903;47.210;8.618;2023-04-09T07:34:46;94617.50;;;26.47;40.69
71194;BME280;58903;47.210;8.618;2023-04-09T07:37:31;94627.00;;;26.46;40.89
71194;BME280;58903;47.210;8.618;2023-04-09T07:40:25;94630.28;;;26.44;40.98
71194;BME280;58903;47.210;8.618;2023-04-09T07:42:59;94622.28;;;26.41;41.54
71194;BME280;58903;47.210;8.618;2023-04-09T07:45:52;94623.78;;;26.36;41.08
71194;BME280;58903;47.210;8.618;2023-04-09T07:48:28;94625.78;;;26.41;40.92
71194;BME280;58903;47.210;8.618;2023-04-09T07:50:56;94626.78;;;26.44;41.25
71194;BME280;58903;47.210;8.618;2023-04-09T07:53:39;94628.53;;;26.47;40.57
71194;BME280;58903;47.210;8.618;2023-04-09T07:56:19;94631.28;;;26.47;40.77
71194;BME280;58903;47.210;8.618;2023-04-09T07:58:45;94634.97;;;26.55;40.31
71194;BME280;58903;47.210;8.618;2023-04-09T08:01:22;94631.44;;;26.60;40.34
71194;BME280;58903;47.210;8.618;2023-04-09T08:04:02;94632.47;;;26.57;40.53
71194;BME280;58903;47.210;8.618;2023-04-09T08:06:55;94635.44;;;26.59;40.38
71194;BME280;58903;47.210;8.618;2023-04-09T08:09:31;94637.44;;;26.64;40.59
71194;BME280;58903;47.210;8.618;2023-04-09T08:12:04;94633.16;;;26.63;41.08
71194;BME280;58903;47.210;8.618;2023-04-09T08:14:31;94633.41;;;26.65;40.64
71194;BME280;58903;47.210;8.618;2023-04-09T08:16:59;94635.16;;;26.62;41.02
71194;BME280;58903;47.210;8.618;2023-04-09T08:19:42;94637.44;;;26.64;40.78
71194;BME280;58903;47.210;8.618;2023-04-09T08:22:29;94644.19;;;26.68;41.03
71194;BME280;58903;47.210;8.618;2023-04-09T08:25:09;94642.38;;;26.71;40.73
71194;BME280;58903;47.210;8.618;2023-04-09T08:27:37;94651.19;;;26.69;40.58
71194;BME280;58903;47.210;8.618;2023-04-09T08:30:11;94649.94;;;26.65;40.96
71194;BME280;58903;47.210;8.618;2023-04-09T08:32:37;94653.47;;;26.65;40.85
71194;BME280;58903;47.210;8.618;2023-04-09T08:35:17;94641.69;;;26.65;40.42
71194;BME280;58903;47.210;8.618;2023-04-09T08:38:18;94649.94;;;26.65;40.69
71194;BME280;58903;47.210;8.618;2023-04-09T08:40:58;94658.47;;;26.67;40.31
71194;BME280;58903;47.210;8.618;2023-04-09T08:43:57;94661.00;;;26.65;40.47
71194;BME280;58903;47.210;8.618;2023-04-09T08:46:27;94652.25;;;26.61;40.74
71194;BME280;58903;47.210;8.618;2023-04-09T08:49:09;94654.25;;;26.60;40.73
71194;BME280;58903;47.210;8.618;2023-04-09T08:51:35;94653.75;;;26.62;41.02
71194;BME280;58903;47.210;8.618;2023-04-09T08:54:05;94663.75;;;26.65;40.82
71194;BME280;58903;47.210;8.618;2023-04-09T08:56:40;94661.78;;;26.60;40.61
71194;BME280;58903;47.210;8.618;2023-04-09T08:59:08;94668.59;;;26.53;41.22
71194;BME280;58903;47.210;8.618;2023-04-09T09:01:34;94667.63;;;26.51;41.30
71194;BME280;58903;47.210;8.618;2023-04-09T09:04:06;94669.91;;;26.47;41.01
71194;BME280;58903;47.210;8.618;2023-04-09T09:06:39;94676.38;;;26.49;41.23
71194;BME280;58903;47.210;8.618;2023-04-09T09:09:21;94675.66;;;26.49;41.34
71194;BME280;58903;47.210;8.618;2023-04-09T09:12:05;94674.38;;;26.50;41.03
71194;BME280;58903;47.210;8.618;2023-04-09T09:14:50;94676.63;;;26.51;40.69
71194;BME280;58903;47.210;8.618;2023-04-09T09:20:37;94673.59;;;26.55;41.54
71194;BME280;58903;47.210;8.618;2023-04-09T09:23:09;94685.88;;;26.59;40.73
71194;BME280;58903;47.210;8.618;2023-04-09T09:25:51;94672.56;;;26.58;41.65
71194;BME280;58903;47.210;8.618;2023-04-09T09:28:42;94680.59;;;26.61;40.76
71194;BME280;58903;47.210;8.618;2023-04-09T09:31:10;94670.53;;;26.64;41.54
71194;BME280;58903;47.210;8.618;2023-04-09T09:33:49;94678.81;;;26.64;41.13
71194;BME280;58903;47.210;8.618;2023-04-09T09:36:48;94676.31;;;26.66;41.38
71194;BME280;58903;47.210;8.618;2023-04-09T09:39:15;94679.28;;;26.68;40.91
71194;BME280;58903;47.210;8.618;2023-04-09T09:42:06;94682.53;;;26.72;41.27
71194;BME280;58903;47.210;8.618;2023-04-09T09:44:32;94675.50;;;26.71;40.78
71194;BME280;58903;47.210;8.618;2023-04-09T09:47:02;94677.50;;;26.76;40.59
71194;BME280;58903;47.210;8.618;2023-04-09T09:49:29;94677.50;;;26.76;41.07
71194;BME280;58903;47.210;8.618;2023-04-09T09:51:58;94670.75;;;26.77;40.58
71194;BME280;58903;47.210;8.618;2023-04-09T09:54:28;94669.47;;;26.78;40.85
71194;BME280;58903;47.210;8.618;2023-04-09T09:57:04;94681.25;;;26.78;41.23
71194;BME280;58903;47.210;8.618;2023-04-09T09:59:36;94670.75;;;26.77;40.97
71194;BME280;58903;47.210;8.618;2023-04-09T10:02:05;94671.47;;;26.77;41.03
71194;BME280;58903;47.210;8.618;2023-04-09T10:04:36;94666.72;;;26.78;40.95
71194;BME280;58903;47.210;8.618;2023-04-09T10:07:06;94672.97;;;26.78;40.71
71194;BME280;58903;47.210;8.618;2023-04-09T10:09:42;94670.97;;;26.79;40.85
71194;BME280;58903;47.210;8.618;2023-04-09T10:12:24;94669.47;;;26.78;41.21
71194;BME280;58903;47.210;8.618;2023-04-09T10:15:06;94671.47;;;26.77;41.20
71194;BME280;58903;47.210;8.618;2023-04-09T10:17:32;94670.75;;;26.77;41.29
71194;BME280;58903;47.210;8.618;2023-04-09T10:22:49;94671.72;;;26.79;40.72
71194;BME280;58903;47.210;8.618;2023-04-09T10:25:36;94662.94;;;26.81;40.88
71194;BME280;58903;47.210;8.618;2023-04-09T10:28:22;94661.94;;;26.78;40.77
71194;BME280;58903;47.210;8.618;2023-04-09T10:30:57;94653.91;;;26.80;41.54
71194;BME280;58903;47.210;8.618;2023-04-09T10:33:42;94652.38;;;26.85;41.08
71194;BME280;58903;47.210;8.618;2023-04-09T10:36:18;94652.13;;;26.83;41.21
71194;BME280;58903;47.210;8.618;2023-04-09T10:38:55;94658.66;;;26.80;41.28
71194;BME280;58903;47.210;8.618;2023-04-09T10:41:38;94654.41;;;26.79;40.92
71194;BME280;58903;47.210;8.618;2023-04-09T10:44:27;94648.38;;;26.80;41.44
71194;BME280;58903;47.210;8.618;2023-04-09T10:46:58;94650.91;;;26.78;41.95
71194;BME280;58903;47.210;8.618;2023-04-09T10:49:26;94652.91;;;26.78;41.84
71194;BME280;58903;47.210;8.618;2023-04-09T10:51:53;94651.44;;;26.77;42.00
71194;BME280;58903;47.210;8.618;2023-04-09T10:59:38;94638.13;;;26.75;43.34
71194;BME280;58903;47.210;8.618;2023-04-09T11:02:16;94640.38;;;26.77;43.40
71194;BME280;58903;47.210;8.618;2023-04-09T11:05:18;94641.88;;;26.78;43.92
71194;BME280;58903;47.210;8.618;2023-04-09T11:11:05;94640.56;;;26.84;43.36
71194;BME280;58903;47.210;8.618;2023-04-09T11:13:32;94637.31;;;26.86;43.45
71194;BME280;58903;47.210;8.618;2023-04-09T11:16:18;94639.25;;;26.91;43.36
71194;BME280;58903;47.210;8.618;2023-04-09T11:19:14;94642.50;;;26.95;42.75
71194;BME280;58903;47.210;8.618;2023-04-09T11:21:43;94632.97;;;26.96;42.58
71194;BME280;58903;47.210;8.618;2023-04-09T11:24:48;94627.22;;;26.94;43.01
71194;BME280;58903;47.210;8.618;2023-04-09T11:27:25;94627.22;;;26.94;43.03
71194;BME280;58903;47.210;8.618;2023-04-09T11:30:19;94631.69;;;26.97;42.62
71194;BME280;58903;47.210;8.618;2023-04-09T11:32:48;94635.72;;;26.96;42.79
71194;BME280;58903;47.210;8.618;2023-04-09T11:35:25;94627.22;;;26.94;43.05
71194;BME280;58903;47.210;8.618;2023-04-09T11:38:10;94626.16;;;26.97;42.36
71194;BME280;58903;47.210;8.618;2023-04-09T11:40:41;94628.91;;;26.97;42.53
71194;BME280;58903;47.210;8.618;2023-04-09T11:43:30;94628.13;;;27.02;42.51
71194;BME280;58903;47.210;8.618;2023-04-09T11:46:15;94625.84;;;27.06;42.40
71194;BME280;58903;47.210;8.618;2023-04-09T11:48:41;94618.31;;;27.07;41.83
71194;BME280;58903;47.210;8.618;2023-04-09T11:51:07;94625.06;;;27.11;42.30
71194;BME280;58903;47.210;8.618;2023-04-09T11:53:36;94628.03;;;27.13;42.06
71194;BME280;58903;47.210;8.618;2023-04-09T11:56:06;94621.28;;;27.14;41.88
71194;BME280;58903;47.210;8.618;2023-04-09T11:58:34;94617.47;;;27.17;41.58
71194;BME280;58903;47.210;8.618;2023-04-09T12:01:20;94617.69;;;27.19;41.68
71194;BME280;58903;47.210;8.618;2023-04-09T12:03:56;94615.38;;;27.23;41.46
71194;BME280;58903;47.210;8.618;2023-04-09T12:10:13;94619.38;;;27.28;41.38
71194;BME280;58903;47.210;8.618;2023-04-09T12:13:16;94622.88;;;27.28;41.33
71194;BME280;58903;47.210;8.618;2023-04-09T12:16:00;94613.63;;;27.26;41.39
71194;BME280;58903;47.210;8.618;2023-04-09T12:18:55;94608.56;;;27.30;41.41
71194;BME280;58903;47.210;8.618;2023-04-09T12:21:49;94610.59;;;27.29;41.43
71194;BME280;58903;47.210;8.618;2023-04-09T12:24:24;94619.59;;;27.30;41.70
71194;BME280;58903;47.210;8.618;2023-04-09T12:26:55;94615.88;;;27.27;41.53
71194;BME280;58903;47.210;8.618;2023-04-09T12:29:31;94607.59;;;27.27;41.48
71194;BME280;58903;47.210;8.618;2023-04-09T12:32:00;94608.78;;;27.32;41.13
71194;BME280;58903;47.210;8.618;2023-04-09T12:34:40;94611.78;;;27.34;41.63
71194;BME280;58903;47.210;8.618;2023-04-09T12:40:34;94611.31;;;27.35;41.60
71194;BME280;58903;47.210;8.618;2023-04-09T12:43:37;94617.81;;;27.38;41.68
71194;BME280;58903;47.210;8.618;2023-04-09T12:46:12;94610.25;;;27.38;41.64
71194;BME280;58903;47.210;8.618;2023-04-09T12:48:47;94615.78;;;27.38;41.79
71194;BME280;58903;47.210;8.618;2023-04-09T12:51:15;94614.00;;;27.41;41.48
71194;BME280;58903;47.210;8.618;2023-04-09T12:57:01;94610.44;;;27.46;41.47
71194;BME280;58903;47.210;8.618;2023-04-09T12:59:59;94610.75;;;27.42;41.30
71194;BME280;58903;47.210;8.618;2023-04-09T13:02:29;94605.22;;;27.42;41.68
71194;BME280;58903;47.210;8.618;2023-04-09T13:05:30;94608.66;;;27.48;41.73
71194;BME280;58903;47.210;8.618;2023-04-09T13:08:02;94609.63;;;27.51;41.50
71194;BME280;58903;47.210;8.618;2023-04-09T13:10:57;94600.38;;;27.48;41.72
71194;BME280;58903;47.210;8.618;2023-04-09T13:13:35;94604.84;;;27.51;41.67
71194;BME280;58903;47.210;8.618;2023-04-09T13:16:18;94592.00;;;27.54;41.51
71194;BME280;58903;47.210;8.618;2023-04-09T13:18:55;94600.03;;;27.57;41.36
71194;BME280;58903;47.210;8.618;2023-04-09T13:21:32;94597.72;;;27.61;41.01
71194;BME280;58903;47.210;8.618;2023-04-09T13:23:57;94593.44;;;27.60;40.71
71194;BME280;58903;47.210;8.618;2023-04-09T13:26:27;94585.69;;;27.59;40.79
71194;BME280;58903;47.210;8.618;2023-04-09T13:29:12;94597.94;;;27.63;40.99
71194;BME280;58903;47.210;8.618;2023-04-09T13:31:46;94587.91;;;27.60;41.09
71194;BME280;58903;47.210;8.618;2023-04-09T13:34:32;94592.66;;;27.66;40.70
71194;BME280;58903;47.210;8.618;2023-04-09T13:37:02;94585.34;;;27.68;40.46
71194;BME280;58903;47.210;8.618;2023-04-09T13:39:29;94584.81;;;27.70;40.75
71194;BME280;58903;47.210;8.618;2023-04-09T13:42:08;94581.06;;;27.67;40.14
71194;BME280;58903;47.210;8.618;2023-04-09T13:44:47;94582.56;;;27.68;40.12
71194;BME280;58903;47.210;8.618;2023-04-09T13:47:44;94581.00;;;27.73;40.50
71194;BME280;58903;47.210;8.618;2023-04-09T13:50:23;94582.00;;;27.75;40.47
71194;BME280;58903;47.210;8.618;2023-04-09T13:53:13;94577.19;;;27.76;40.25
71194;BME280;58903;47.210;8.618;2023-04-09T13:59:10;94564.56;;;27.80;40.57
71194;BME280;58903;47.210;8.618;2023-04-09T14:01:47;94565.56;;;27.83;40.54
71194;BME280;58903;47.210;8.618;2023-04-09T14:04:32;94564.81;;;27.82;40.30
71194;BME280;58903;47.210;8.618;2023-04-09T14:07:24;94555.25;;;27.83;40.51
71194;BME280;58903;47.210;8.618;2023-04-09T14:10:14;94557.72;;;27.87;40.40
71194;BME280;58903;47.210;8.618;2023-04-09T14:15:56;94558.16;;;27.91;40.38
71194;BME280;58903;47.210;8.618;2023-04-09T14:18:23;94556.91;;;27.92;40.31
71194;BME280;58903;47.210;8.618;2023-04-09T14:21:29;94561.41;;;27.95;40.59
71194;BME280;58903;47.210;8.618;2023-04-09T14:24:26;94554.84;;;27.98;40.44
71194;BME280;58903;47.210;8.618;2023-04-09T14:26:54;94553.78;;;28.01;40.31
71194;BME280;58903;47.210;8.618;2023-04-09T14:29:38;94555.50;;;28.04;40.61
71194;BME280;58903;47.210;8.618;2023-04-09T14:32:29;94554.47;;;28.07;40.74
71194;BME280;58903;47.210;8.618;2023-04-09T14:35:04;94555.22;;;28.07;40.65
71194;BME280;58903;47.210;8.618;2023-04-09T14:37:49;94548.63;;;28.10;40.62
71194;BME280;58903;47.210;8.618;2023-04-09T14:40:45;94549.81;;;28.15;40.58
71194;BME280;58903;47.210;8.618;2023-04-09T14:43:13;94542.50;;;28.17;40.74
71194;BME280;58903;47.210;8.618;2023-04-09T14:45:39;94547.28;;;28.17;40.79
71194;BME280;58903;47.210;8.618;2023-04-09T14:48:09;94546.47;;;28.22;41.32
71194;BME280;58903;47.210;8.618;2023-04-09T14:50:37;94554.22;;;28.23;40.79
71194;BME280;58903;47.210;8.618;2023-04-09T14:53:16;94552.44;;;28.26;40.26
71194;BME280;58903;47.210;8.618;2023-04-09T14:55:57;94547.66;;;28.26;40.29
71194;BME280;58903;47.210;8.618;2023-04-09T14:58:31;94545.84;;;28.29;40.14
71194;BME280;58903;47.210;8.618;2023-04-09T15:00:59;94548.84;;;28.31;39.90